Sergeant Bluff, IA

7:25 PM CDT on June 03, 2015 (GMT -0500)
Sioux Gateway | | Change Station
CLOSE
Current Station
Airport
Location: Sioux City,
Elevation: 1102 ft
Nearby Weather Stations

Elev 1102 ft 42.39 °N, 96.38 °W | Updated 33 minutes ago

Clear
Clear
81 °F
Feels Like 81 °F
N
4
Wind Variable Wind from Variable

Today
High -- | Low -- °F
--% Chance of Precip.
Yesterday
High -- | Low -- °F
Precip. -- in
5:50 AM 8:57 PM
Full, 98% visible
Pressure 29.86 in
Visibility 10.0 miles
Clouds Clear
Heat Index 81 °F
Dew Point 57 °F
Humidity 44%
Rainfall 0.27 in
Snow Depth Not available.
UV 2 out of 12
Pollen 3.50 out of 12
Air Quality Not available.
Flu Activity No Activity
METAR KSUX 032352Z VRB03KT 10SM CLR 27/14 A2988 RMK AO2 SLP110 T02720139 10278 20250 56006

More Conditions Fewer Conditions

Pressure 29.86 in
Visibility 10.0 miles
Clouds Clear
Heat Index 81 °F
Dew Point 57 °F
Humidity 44%
Rainfall 0.27 in
Snow Depth Not available.
UV 2 out of 12
Pollen 3.50 out of 12
Air Quality Not available.
Flu Activity No Activity
METAR KSUX 032352Z VRB03KT 10SM CLR 27/14 A2988 RMK AO2 SLP110 T02720139 10278 20250 56006

More Conditions Fewer Conditions

10-Day Weather Forecast

×

Almanac

Astronomy

Jun. 03, 2015 Rise Set
Actual Time
Civil Twilight
Nautical Twilight
Astronomical Twilight
Moon
Length of Visible Light
Length of Day
Tomorrow will be .
, % of the Moon is Illuminated

Today's Extremes

State Highs State Lows

Community

WunderPhotos

Upload Photos

1,826,316 photos uploaded!

WunderBlogs® & News

Nearby

Air Quality

  Air Quality AQ Index Pollutant
Not available.

Snow Depth

Station Depth Elevation

Earthquake Activity

City Distance Mag. Time & Date
Minimum magnitude displayed is 2.5.

Coastal Water Temperatures

Place Temperature

Stations

Nearby Weather Stations

Station Location Temp. Windchill Dew Point Humidity Wind Precip. Elev Updated Type